| time (UTC) | temp C | wind direction | speed KPH | gust KPH | rain 1hr cm | rain 24hr cm | rain mn cm | humidity % | barometer mb |
| 20260504110608 | 8 | 271 | 3.2 | 8.0 | 0.00 | 0.00 | 0.00 | 57 | 1018.0 |
| 20260504110107 | 8 | 271 | 4.8 | 8.0 | 0.00 | 0.00 | 0.00 | 57 | 1017.8 |
| 20260504100600 | 7 | 175 | 4.8 | 11.3 | 0.00 | 0.00 | 0.00 | 60 | 1017.4 |
| 20260504081541 | 7 | 173 | 0.0 | 3.2 | 0.00 | 0.00 | 0.00 | 59 | 1018.1 |
| 20260504081039 | 7 | 173 | 0.0 | 3.2 | 0.00 | 0.00 | 0.00 | 59 | 1018.1 |
| 20260504080538 | 7 | 173 | 0.0 | 0.0 | 0.00 | 0.00 | 0.00 | 57 | 1018.1 |
| 20260504050510 | 10 | 244 | 3.2 | 9.7 | 0.00 | 0.00 | 0.00 | 50 | 1017.8 |
| 20260504050012 | 10 | 244 | 3.2 | 9.7 | 0.00 | 0.00 | 0.00 | 49 | 1017.7 |
| 20260504045510 | 10 | 196 | 3.2 | 8.0 | 0.00 | 0.00 | 0.00 | 48 | 1017.7 |
| 20260504045012 | 10 | 202 | 3.2 | 9.7 | 0.00 | 0.00 | 0.00 | 49 | 1017.7 |
| 20260504044511 | 10 | 209 | 3.2 | 9.7 | 0.00 | 0.00 | 0.00 | 48 | 1017.7 |
| 20260504044242 | 10 | 182 | 3.2 | 6.4 | 0.00 | 0.00 | 0.00 | 48 | 1017.6 |
| 20260504043510 | 10 | 182 | 3.2 | 6.4 | 0.00 | 0.00 | 0.00 | 49 | 1017.6 |
| 20260504043011 | 10 | 182 | 3.2 | 9.7 | 0.00 | 0.00 | 0.00 | 48 | 1017.6 |
| 20260504042512 | 10 | 175 | 1.6 | 9.7 | 0.00 | 0.00 | 0.00 | 48 | 1017.5 |
| 20260504042012 | 10 | 200 | 3.2 | 8.0 | 0.00 | 0.00 | 0.00 | 48 | 1017.4 |
| 20260504041743 | 10 | 200 | 3.2 | 8.0 | 0.00 | 0.00 | 0.00 | 47 | 1017.3 |
| 20260504041009 | 10 | 188 | 3.2 | 9.7 | 0.00 | 0.00 | 0.00 | 47 | 1017.4 |
| 20260504040507 | 10 | 189 | 3.2 | 9.7 | 0.00 | 0.00 | 0.00 | 48 | 1017.4 |
| 20260504040007 | 10 | 169 | 3.2 | 9.7 | 0.00 | 0.00 | 0.00 | 47 | 1017.3 |
| 20260504035508 | 10 | 169 | 3.2 | 9.7 | 0.00 | 0.00 | 0.00 | 47 | 1017.3 |
| 20260504035002 | 10 | 132 | 3.2 | 11.3 | 0.00 | 0.00 | 0.00 | 47 | 1017.3 |
| 20260504034502 | 10 | 132 | 3.2 | 11.3 | 0.00 | 0.00 | 0.00 | 47 | 1017.3 |
| 20260504034001 | 10 | 188 | 3.2 | 9.7 | 0.00 | 0.00 | 0.00 | 47 | 1017.2 |
| 20260504033731 | 10 | 69 | 3.2 | 9.7 | 0.00 | 0.00 | 0.00 | 47 | 1017.2 |
| 20260504033007 | 10 | 206 | 3.2 | 8.0 | 0.00 | 0.00 | 0.00 | 47 | 1017.2 |
| 20260504032502 | 10 | 171 | 3.2 | 8.0 | 0.00 | 0.00 | 0.00 | 46 | 1017.2 |
| 20260504032001 | 10 | 213 | 3.2 | 8.0 | 0.00 | 0.00 | 0.00 | 47 | 1017.2 |
| 20260504031502 | 10 | 197 | 3.2 | 8.0 | 0.00 | 0.00 | 0.00 | 47 | 1017.2 |
| 20260504031002 | 10 | 300 | 1.6 | 9.7 | 0.00 | 0.00 | 0.00 | 48 | 1017.2 |
| 20260504030500 | 10 | 327 | 1.6 | 9.7 | 0.00 | 0.00 | 0.00 | 47 | 1017.2 |
| 20260504025959 | 10 | 226 | 1.6 | 6.4 | 0.00 | 0.00 | 0.00 | 47 | 1017.2 |
| 20260504025500 | 10 | 227 | 1.6 | 6.4 | 0.00 | 0.00 | 0.00 | 48 | 1017.3 |
| 20260504024958 | 10 | 226 | 1.6 | 4.8 | 0.00 | 0.00 | 0.00 | 46 | 1017.3 |
| 20260504024728 | 10 | 226 | 0.0 | 3.2 | 0.00 | 0.00 | 0.00 | 46 | 1017.3 |
| 20260504023956 | 10 | 226 | 1.6 | 6.4 | 0.00 | 0.00 | 0.00 | 45 | 1017.2 |
| 20260504023456 | 10 | 226 | 1.6 | 6.4 | 0.00 | 0.00 | 0.00 | 45 | 1017.3 |
| 20260504022956 | 10 | 226 | 1.6 | 6.4 | 0.00 | 0.00 | 0.00 | 46 | 1017.3 |
| 20260504022455 | 10 | 226 | 1.6 | 4.8 | 0.00 | 0.00 | 0.00 | 45 | 1017.2 |
| 20260504021956 | 10 | 226 | 1.6 | 4.8 | 0.00 | 0.00 | 0.00 | 44 | 1017.2 |
| 20260504021455 | 11 | 226 | 1.6 | 6.4 | 0.00 | 0.00 | 0.00 | 43 | 1017.2 |
| 20260504020950 | 11 | 226 | 1.6 | 6.4 | 0.00 | 0.00 | 0.00 | 44 | 1017.2 |
| 20260504020451 | 11 | 226 | 1.6 | 6.4 | 0.00 | 0.00 | 0.00 | 44 | 1017.3 |
| 20260504020349 | 11 | 226 | 1.6 | 6.4 | 0.00 | 0.00 | 0.00 | 43 | 1017.3 |
| 20260504020241 | 11 | 226 | 1.6 | 6.4 | 0.00 | 0.00 | 0.00 | 43 | 1017.3 |
| 20260504015219 | 11 | 226 | 1.6 | 4.8 | 0.00 | 0.00 | 0.00 | 43 | 1017.2 |
| 20260504014450 | 11 | 226 | 1.6 | 4.8 | 0.00 | 0.00 | 0.00 | 44 | 1017.1 |
| 20260504013950 | 11 | 226 | 1.6 | 8.0 | 0.00 | 0.00 | 0.00 | 44 | 1017.1 |
| 20260504013450 | 11 | 226 | 1.6 | 8.0 | 0.00 | 0.00 | 0.00 | 43 | 1017.1 |
| 20260504012948 | 11 | 226 | 0.0 | 4.8 | 0.00 | 0.00 | 0.00 | 44 | 1016.9 |
| 20260504012450 | 11 | 226 | 0.0 | 4.8 | 0.00 | 0.00 | 0.00 | 44 | 1016.8 |
| 20260504011957 | 11 | 226 | 1.6 | 8.0 | 0.00 | 0.00 | 0.00 | 43 | 1016.7 |
| 20260504011951 | 11 | 226 | 0.0 | 4.8 | 0.00 | 0.00 | 0.00 | 43 | 1016.8 |
| 20260504011220 | 11 | 226 | 3.2 | 8.0 | 0.00 | 0.00 | 0.00 | 43 | 1016.6 |
| 20260504011121 | 11 | 226 | 3.2 | 8.0 | 0.00 | 0.00 | 0.00 | 41 | 1016.6 |
| 20260504005946 | 11 | 226 | 3.2 | 8.0 | 0.00 | 0.00 | 0.00 | 41 | 1016.5 |
| 20260504005444 | 11 | 226 | 1.6 | 8.0 | 0.00 | 0.00 | 0.00 | 41 | 1016.6 |
| 20260504004945 | 11 | 226 | 1.6 | 8.0 | 0.00 | 0.00 | 0.00 | 42 | 1016.5 |
| 20260504004446 | 11 | 226 | 3.2 | 8.0 | 0.00 | 0.00 | 0.00 | 42 | 1016.6 |
| 20260504003944 | 11 | 227 | 1.6 | 8.0 | 0.00 | 0.00 | 0.00 | 41 | 1016.5 |
| 20260504003445 | 11 | 227 | 1.6 | 8.0 | 0.00 | 0.00 | 0.00 | 41 | 1016.5 |
| 20260504002943 | 12 | 227 | 1.6 | 6.4 | 0.00 | 0.00 | 0.00 | 43 | 1016.4 |
| 20260504002442 | 12 | 227 | 3.2 | 8.0 | 0.00 | 0.00 | 0.00 | 42 | 1016.3 |
| 20260504001940 | 12 | 227 | 3.2 | 9.7 | 0.00 | 0.00 | 0.00 | 40 | 1016.2 |
| 20260504001440 | 12 | 227 | 3.2 | 9.7 | 0.00 | 0.00 | 0.00 | 40 | 1016.2 |
| 20260504001207 | 12 | 227 | 1.6 | 8.0 | 0.00 | 0.00 | 0.00 | 40 | 1016.1 |
| 20260504000436 | 12 | 227 | 1.6 | 4.8 | 0.00 | 0.00 | 0.00 | 39 | 1016.1 |
| 20260503235934 | 12 | 227 | 1.6 | 6.4 | 0.00 | 0.00 | 0.00 | 39 | 1016.1 |
| 20260503235438 | 13 | 227 | 1.6 | 6.4 | 0.00 | 0.00 | 0.00 | 38 | 1016.0 |
| 20260503234935 | 13 | 227 | 1.6 | 6.4 | 0.00 | 0.00 | 0.00 | 41 | 1016.0 |
| 20260503234433 | 13 | 227 | 1.6 | 4.8 | 0.00 | 0.00 | 0.00 | 39 | 1015.9 |
| 20260503233933 | 13 | 227 | 1.6 | 4.8 | 0.00 | 0.00 | 0.00 | 39 | 1015.9 |
| 20260503233433 | 13 | 227 | 0.0 | 4.8 | 0.00 | 0.00 | 0.00 | 40 | 1015.9 |
| 20260503233205 | 13 | 227 | 0.0 | 3.2 | 0.00 | 0.00 | 0.00 | 39 | 1015.9 |
| 20260503232433 | 13 | 227 | 0.0 | 3.2 | 0.00 | 0.00 | 0.00 | 39 | 1015.8 |
| 20260503231932 | 13 | 227 | 1.6 | 9.7 | 0.00 | 0.00 | 0.00 | 40 | 1015.9 |
| 20260503231432 | 13 | 227 | 3.2 | 9.7 | 0.00 | 0.00 | 0.00 | 39 | 1015.8 |
| 20260503230932 | 13 | 213 | 3.2 | 9.7 | 0.00 | 0.00 | 0.00 | 39 | 1015.9 |
| 20260503230432 | 13 | 42 | 3.2 | 12.9 | 0.00 | 0.00 | 0.00 | 38 | 1015.9 |
| 20260503225931 | 13 | 211 | 4.8 | 16.1 | 0.00 | 0.00 | 0.00 | 39 | 1015.8 |
| 20260503225426 | 13 | 159 | 3.2 | 16.1 | 0.00 | 0.00 | 0.00 | 38 | 1015.7 |
| 20260503224926 | 13 | 193 | 3.2 | 11.3 | 0.00 | 0.00 | 0.00 | 38 | 1015.8 |
| 20260503224425 | 13 | 32 | 4.8 | 17.7 | 0.00 | 0.00 | 0.00 | 37 | 1015.8 |
| 20260503223923 | 13 | 28 | 6.4 | 17.7 | 0.00 | 0.00 | 0.00 | 38 | 1015.8 |
| 20260503223424 | 13 | 42 | 4.8 | 14.5 | 0.00 | 0.00 | 0.00 | 38 | 1015.7 |
| 20260503222923 | 13 | 34 | 3.2 | 12.9 | 0.00 | 0.00 | 0.00 | 38 | 1015.8 |
| 20260503222817 | 13 | 50 | 3.2 | 14.5 | 0.00 | 0.00 | 0.00 | 38 | 1015.7 |
| 20260503222707 | 13 | 305 | 4.8 | 14.5 | 0.00 | 0.00 | 0.00 | 37 | 1015.8 |
| 20260503221654 | 14 | 69 | 3.2 | 14.5 | 0.00 | 0.00 | 0.00 | 37 | 1015.7 |
| 20260503221152 | 13 | 5 | 4.8 | 14.5 | 0.00 | 0.00 | 0.00 | 37 | 1015.7 |
| 20260503220422 | 13 | 39 | 4.8 | 11.3 | 0.00 | 0.00 | 0.00 | 39 | 1015.7 |
| 20260503215922 | 13 | 63 | 4.8 | 11.3 | 0.00 | 0.00 | 0.00 | 38 | 1015.9 |
| 20260503215425 | 13 | 298 | 6.4 | 12.9 | 0.00 | 0.00 | 0.00 | 37 | 1015.8 |
| 20260503214920 | 13 | 22 | 8.0 | 14.5 | 0.00 | 0.00 | 0.00 | 37 | 1015.8 |
| 20260503214420 | 13 | 38 | 8.0 | 14.5 | 0.00 | 0.00 | 0.00 | 37 | 1015.8 |
| 20260503213920 | 14 | 26 | 6.4 | 14.5 | 0.00 | 0.00 | 0.00 | 38 | 1015.7 |
| 20260503213413 | 13 | 36 | 6.4 | 14.5 | 0.00 | 0.00 | 0.00 | 37 | 1015.7 |
| 20260503212911 | 13 | 31 | 9.7 | 17.7 | 0.00 | 0.00 | 0.00 | 39 | 1015.6 |
| 20260503212409 | 13 | 49 | 9.7 | 17.7 | 0.00 | 0.00 | 0.00 | 37 | 1015.6 |
| 20260503211911 | 14 | 331 | 8.0 | 17.7 | 0.00 | 0.00 | 0.00 | 36 | 1015.5 |
| 20260503211408 | 14 | 18 | 8.0 | 17.7 | 0.00 | 0.00 | 0.00 | 37 | 1015.6 |
| 20260503211140 | 13 | 53 | 9.7 | 20.9 | 0.00 | 0.00 | 0.00 | 36 | 1015.5 |
| 20260503210409 | 13 | 45 | 11.3 | 25.7 | 0.00 | 0.00 | 0.00 | 36 | 1015.6 |
| 20260503205908 | 13 | 34 | 11.3 | 25.7 | 0.00 | 0.00 | 0.00 | 36 | 1015.5 |
| 20260503205409 | 13 | 56 | 11.3 | 22.5 | 0.00 | 0.00 | 0.00 | 36 | 1015.4 |
| 20260503204909 | 13 | 24 | 6.4 | 19.3 | 0.00 | 0.00 | 0.00 | 38 | 1015.4 |
| 20260503204410 | 13 | 34 | 6.4 | 17.7 | 0.00 | 0.00 | 0.00 | 37 | 1015.5 |
| 20260503203914 | 13 | 96 | 8.0 | 20.9 | 0.00 | 0.00 | 0.00 | 36 | 1015.4 |
| 20260503203910 | 13 | 34 | 9.7 | 20.9 | 0.00 | 0.00 | 0.00 | 36 | 1015.5 |
| 20260503202909 | 13 | 32 | 8.0 | 19.3 | 0.00 | 0.00 | 0.00 | 35 | 1015.5 |
| 20260503202410 | 13 | 30 | 6.4 | 19.3 | 0.00 | 0.00 | 0.00 | 34 | 1015.4 |
| 20260503202145 | 14 | 40 | 8.0 | 20.9 | 0.00 | 0.00 | 0.00 | 34 | 1015.5 |
| 20260503201909 | 14 | 293 | 6.4 | 20.9 | 0.00 | 0.00 | 0.00 | 34 | 1015.5 |
| 20260503200908 | 13 | 331 | 8.0 | 20.9 | 0.00 | 0.00 | 0.00 | 33 | 1015.4 |
| 20260503200409 | 13 | 0 | 8.0 | 22.5 | 0.00 | 0.00 | 0.00 | 34 | 1015.6 |
| 20260503195911 | 13 | 136 | 9.7 | 24.1 | 0.00 | 0.00 | 0.00 | 34 | 1015.6 |
| 20260503195406 | 13 | 22 | 6.4 | 24.1 | 0.00 | 0.00 | 0.00 | 33 | 1015.6 |
| 20260503194900 | 13 | 355 | 8.0 | 17.7 | 0.00 | 0.00 | 0.00 | 35 | 1015.8 |
| 20260503194623 | 13 | 22 | 9.7 | 17.7 | 0.00 | 0.00 | 0.00 | 34 | 1015.9 |
| 20260503194123 | 13 | 355 | 11.3 | 22.5 | 0.00 | 0.00 | 0.00 | 36 | 1015.8 |
| 20260503193354 | 13 | 5 | 11.3 | 22.5 | 0.00 | 0.00 | 0.00 | 34 | 1015.9 |
| 20260503192854 | 12 | 49 | 11.3 | 22.5 | 0.00 | 0.00 | 0.00 | 35 | 1015.9 |
| 20260503192624 | 13 | 328 | 11.3 | 19.3 | 0.00 | 0.00 | 0.00 | 34 | 1016.0 |
| 20260503191851 | 13 | 32 | 11.3 | 20.9 | 0.00 | 0.00 | 0.00 | 36 | 1016.1 |
| 20260503191356 | 13 | 40 | 9.7 | 30.6 | 0.00 | 0.00 | 0.00 | 36 | 1016.2 |
| 20260503191350 | 13 | 26 | 11.3 | 30.6 | 0.00 | 0.00 | 0.00 | 33 | 1016.2 |
| 20260503190352 | 13 | 13 | 9.7 | 25.7 | 0.00 | 0.00 | 0.00 | 34 | 1016.3 |
| 20260503185852 | 13 | 9 | 11.3 | 25.7 | 0.00 | 0.00 | 0.00 | 34 | 1016.3 |
| 20260503185622 | 13 | 347 | 11.3 | 25.7 | 0.00 | 0.00 | 0.00 | 36 | 1016.5 |
| 20260503184851 | 12 | 355 | 8.0 | 16.1 | 0.00 | 0.00 | 0.00 | 39 | 1016.7 |
| 20260503184353 | 12 | 0 | 6.4 | 16.1 | 0.00 | 0.00 | 0.00 | 37 | 1016.7 |
| 20260503184119 | 13 | 342 | 6.4 | 16.1 | 0.00 | 0.00 | 0.00 | 36 | 1016.7 |
| 20260503183350 | 12 | 115 | 6.4 | 12.9 | 0.00 | 0.00 | 0.00 | 38 | 1016.9 |
| 20260503182850 | 12 | 351 | 6.4 | 16.1 | 0.00 | 0.00 | 0.00 | 37 | 1017.1 |
| 20260503182349 | 12 | 65 | 8.0 | 16.1 | 0.00 | 0.00 | 0.00 | 38 | 1017.1 |
| 20260503181849 | 11 | 32 | 9.7 | 22.5 | 0.00 | 0.00 | 0.00 | 39 | 1017.1 |
| 20260503181619 | 11 | 346 | 9.7 | 22.5 | 0.00 | 0.00 | 0.00 | 39 | 1017.1 |
| 20260503180848 | 11 | 10 | 8.0 | 17.7 | 0.00 | 0.00 | 0.00 | 39 | 1017.2 |
| 20260503180348 | 12 | 30 | 9.7 | 17.7 | 0.00 | 0.00 | 0.00 | 42 | 1017.2 |
| 20260503180120 | 11 | 41 | 12.9 | 29.0 | 0.00 | 0.00 | 0.00 | 42 | 1017.2 |
| 20260503175618 | 11 | 331 | 12.9 | 29.0 | 0.00 | 0.00 | 0.00 | 40 | 1017.2 |
| 20260503174846 | 11 | 355 | 11.3 | 24.1 | 0.00 | 0.00 | 0.00 | 38 | 1017.4 |
| 20260503174347 | 11 | 322 | 9.7 | 24.1 | 0.00 | 0.00 | 0.00 | 39 | 1017.5 |
| 20260503173847 | 11 | 30 | 11.3 | 24.1 | 0.00 | 0.00 | 0.00 | 38 | 1017.4 |
| 20260503173348 | 11 | 18 | 11.3 | 24.1 | 0.00 | 0.00 | 0.00 | 38 | 1017.4 |
| 20260503172847 | 11 | 49 | 11.3 | 30.6 | 0.00 | 0.00 | 0.00 | 36 | 1017.6 |
| 20260503172347 | 11 | 80 | 11.3 | 30.6 | 0.00 | 0.00 | 0.00 | 40 | 1017.5 |
| 20260503171840 | 11 | 29 | 11.3 | 22.5 | 0.00 | 0.00 | 0.00 | 39 | 1017.7 |
| 20260503171342 | 11 | 5 | 12.9 | 24.1 | 0.00 | 0.00 | 0.00 | 42 | 1017.7 |
| 20260503170841 | 11 | 24 | 11.3 | 24.1 | 0.00 | 0.00 | 0.00 | 41 | 1017.7 |
| 20260503170611 | 11 | 34 | 8.0 | 22.5 | 0.00 | 0.00 | 0.00 | 39 | 1017.7 |
| 20260503150835 | 8 | 332 | 9.7 | 17.7 | 0.00 | 0.00 | 0.00 | 46 | 1018.4 |
| 20260503150335 | 8 | 20 | 11.3 | 19.3 | 0.00 | 0.00 | 0.00 | 45 | 1018.3 |
| 20260503131320 | 7 | 49 | 11.3 | 17.7 | 0.00 | 0.00 | 0.00 | 60 | 1018.7 |
| 20260503131049 | 6 | 51 | 11.3 | 17.7 | 0.00 | 0.00 | 0.00 | 62 | 1018.8 |
| 20260503130941 | 6 | 38 | 11.3 | 19.3 | 0.00 | 0.00 | 0.00 | 60 | 1018.9 |